首页
METAR-TAF:

METAR-TAF

机场 :

干邑白蘭地, 法国

纬度: 45-40N, 经度: 000-19W, 海拔: 30米

当前天气观测

该预报发布于25分钟前的14:00 UTC
风速2节,风向多变
温度 11°C
湿度 66%
气压 1020 hPa
能见度10公里或以上
阴天层高于2900英尺

METAR: LFBG 071400Z AUTO VRB02KT 9999 OVC029 11/05 Q1020

时间: 15:25 (14:25 UTC)

预报

该预报发布于30小时和25分钟前的08:00 UTC
预报有效从06日的 09点(UTC)到 07日的 09点(UTC)
风速6节,风向北转东北
能见度10公里或以上
1500米以下无云,无积雨云

TAF: LFBG 060800Z 0609/0709 03006KT CAVOK

超过4000个机场的气象观测和天气预报(METAR&TAF报告)。

可查询的气象台以黄色和红色小点在地图上表示。

将鼠标移到小点上方,可查看气象台名称。

然后点击查看天气观测和预报。

如需切换地图:点击带黑十字的绿色按钮放大地图;点击带横线的绿色按钮缩小地图;或者点击绿色箭头查看邻近地区的地图。


METAR-TAF: